Time;durP1;ratioP1;P1;durP2;ratioP2;P2;SDS_P1;SDS_P2;PMS_P1;PMS_P2;Temp;Humidity;BMP_temperature;BMP_pressure;BME280_temperature;BME280_humidity;BME280_pressure;Samples;Min_cycle;Max_cycle;Signal;HPM_P1;HPM_P2
2021/06/02 00:01:52;;;;;;;;;;;;;;;11.92;100.00;99032.47;5052336;28;20035;-76
2021/06/02 00:04:20;;;;;;;;;;;;;;;11.86;100.00;99034.19;5053869;28;20443;-76
2021/06/02 00:06:48;;;;;;;;;;;;;;;11.80;100.00;99027.53;5053930;28;20368;-76
2021/06/02 00:09:16;;;;;;;;;;;;;;;11.72;100.00;99028.91;5053915;28;20303;-76
2021/06/02 00:11:43;;;;;;;;;;;;;;;11.65;100.00;99023.47;5052524;28;19932;-76
2021/06/02 00:14:11;;;;;;;;;;;;;;;11.55;100.00;99024.44;5053828;28;19935;-76
2021/06/02 00:16:38;;;;;;;;;;;;;;;11.42;100.00;99020.69;5052232;28;19925;-76
2021/06/02 00:19:05;;;;;;;;;;;;;;;11.36;100.00;99021.66;5052569;28;20253;-76
2021/06/02 00:21:33;;;;;;;;;;;;;;;11.26;100.00;99023.44;5053006;28;20382;-76
2021/06/02 00:24:00;;;;;;;;;;;;;;;11.21;100.00;99021.13;5053727;28;19925;-76
2021/06/02 00:26:32;;;;;;;;;;;;;;;11.19;100.00;99015.19;5053246;28;19925;-76
2021/06/02 00:29:00;;;;;;;;;;;;;;;11.09;100.00;99016.16;5069251;28;20386;-76
2021/06/02 00:31:27;;;;;;;;;;;;;;;10.97;100.00;99008.41;5053102;28;20287;-75
2021/06/02 00:33:57;;;;;;;;;;;;;;;10.82;100.00;99007.06;5053450;28;19947;-76
2021/06/02 00:36:26;;;;;;;;;;;;;;;10.71;100.00;99000.88;5053440;28;20425;-76
2021/06/02 00:38:53;;;;;;;;;;;;;;;10.69;100.00;99001.31;5051668;28;19925;-76
2021/06/02 00:41:21;;;;;;;;;;;;;;;10.61;100.00;98999.06;5052252;28;19925;-76
2021/06/02 00:44:07;;;;;;;;;;;;;;;10.49;100.00;99008.06;5052923;28;19936;-76
2021/06/02 00:46:37;;;;;;;;;;;;;;;10.49;100.00;98999.69;5035526;28;19925;-76
2021/06/02 00:49:06;;;;;;;;;;;;;;;10.36;100.00;98998.72;5052898;28;19924;-76
2021/06/02 00:51:34;;;;;;;;;;;;;;;10.35;100.00;98985.94;5053049;28;20387;-75
2021/06/02 00:54:01;;;;;;;;;;;;;;;10.29;100.00;98987.63;5052919;28;20038;-76
2021/06/02 00:56:36;;;;;;;;;;;;;;;10.16;100.00;98981.84;5053002;28;20343;-76
2021/06/02 00:59:04;;;;;;;;;;;;;;;10.09;100.00;98983.94;5051340;28;20023;-76
2021/06/02 01:01:33;;;;;;;;;;;;;;;10.16;100.00;98984.63;5052694;28;20030;-75
2021/06/02 01:04:02;;;;;;;;;;;;;;;10.00;100.00;98981.66;5050366;28;19952;-76
2021/06/02 01:06:30;;;;;;;;;;;;;;;10.08;100.00;98979.59;5052822;28;19991;-76
2021/06/02 01:08:59;;;;;;;;;;;;;;;9.90;100.00;98993.00;5052741;28;19932;-75
2021/06/02 01:11:27;;;;;;;;;;;;;;;9.90;100.00;98987.41;5051554;28;20487;-75
2021/06/02 01:13:58;;;;;;;;;;;;;;;9.86;100.00;98975.50;5052228;28;19925;-76
2021/06/02 01:16:33;;;;;;;;;;;;;;;9.88;100.00;98984.25;5052654;28;19925;-76
2021/06/02 01:19:00;;;;;;;;;;;;;;;9.54;100.00;98992.69;5052824;28;19932;-75
2021/06/02 01:21:28;;;;;;;;;;;;;;;9.51;100.00;98989.94;5052381;28;20434;-75
2021/06/02 01:23:59;;;;;;;;;;;;;;;9.47;100.00;98987.19;5052665;28;19925;-76
2021/06/02 01:26:27;;;;;;;;;;;;;;;9.33;100.00;98992.16;5052416;28;19932;-75
2021/06/02 01:28:55;;;;;;;;;;;;;;;9.44;100.00;98996.41;5034490;28;19925;-75
2021/06/02 01:31:42;;;;;;;;;;;;;;;9.45;100.00;99000.00;5052559;28;19929;-75
2021/06/02 01:34:28;;;;;;;;;;;;;;;9.33;100.00;98997.75;5052302;28;19925;-75
2021/06/02 01:36:58;;;;;;;;;;;;;;;9.18;100.00;98992.31;5052157;28;19929;-76
2021/06/02 01:39:25;;;;;;;;;;;;;;;9.29;100.00;99002.56;5034975;28;19925;-75
2021/06/02 01:42:15;;;;;;;;;;;;;;;9.19;100.00;98998.72;5050716;28;20023;-75
2021/06/02 01:45:08;;;;;;;;;;;;;;;9.19;100.00;98996.69;5052537;28;19931;-76
2021/06/02 01:47:49;;;;;;;;;;;;;;;8.99;100.00;98989.38;5052338;28;19929;-75
2021/06/02 01:50:35;;;;;;;;;;;;;;;8.85;100.00;99001.44;5084436;28;20006;-75
2021/06/02 01:53:21;;;;;;;;;;;;;;;8.77;100.00;99005.50;5051073;28;19939;-75
2021/06/02 01:55:51;;;;;;;;;;;;;;;8.87;100.00;98999.06;5052235;28;19971;-75
2021/06/02 01:58:47;;;;;;;;;;;;;;;8.83;100.00;98992.72;5050738;28;20334;-75
2021/06/02 02:01:17;;;;;;;;;;;;;;;8.78;100.00;99001.50;5051427;28;19932;-75
2021/06/02 02:04:04;;;;;;;;;;;;;;;8.78;100.00;98993.16;5050633;28;19932;-75
2021/06/02 02:06:37;;;;;;;;;;;;;;;8.53;100.00;98995.38;5051838;28;19932;-75
2021/06/02 02:09:06;;;;;;;;;;;;;;;8.59;100.00;98993.75;5051812;28;19929;-75
2021/06/02 02:11:43;;;;;;;;;;;;;;;8.63;100.00;99000.06;5050553;28;19928;-75
2021/06/02 02:14:22;;;;;;;;;;;;;;;8.55;100.00;99003.34;5052204;28;19929;-75
2021/06/02 02:17:16;;;;;;;;;;;;;;;8.35;100.00;99002.31;5056184;28;20372;-75
2021/06/02 02:19:59;;;;;;;;;;;;;;;8.01;100.00;99002.13;5054954;28;19932;-75
2021/06/02 02:22:45;;;;;;;;;;;;;;;8.10;100.00;98999.72;5088144;28;19928;-75
2021/06/02 02:25:17;;;;;;;;;;;;;;;8.14;100.00;98999.66;5055834;28;19995;-75
2021/06/02 02:27:50;;;;;;;;;;;;;;;8.24;100.00;99001.63;5055608;28;19925;-75
2021/06/02 02:30:18;;;;;;;;;;;;;;;8.25;100.00;99008.75;5055840;28;19929;-75
2021/06/02 02:32:54;;;;;;;;;;;;;;;8.24;100.00;99007.19;5054450;28;20391;-75
2021/06/02 02:35:36;;;;;;;;;;;;;;;8.42;100.00;98997.47;5037635;28;19925;-75
2021/06/02 02:38:03;;;;;;;;;;;;;;;8.24;100.00;99005.19;5055196;28;19925;-75
2021/06/02 02:40:39;;;;;;;;;;;;;;;8.30;100.00;99008.34;5055417;28;19925;-75
2021/06/02 02:43:12;;;;;;;;;;;;;;;8.29;100.00;99004.75;5055490;28;19939;-75
2021/06/02 02:45:59;;;;;;;;;;;;;;;8.25;100.00;99011.53;5054319;28;19931;-75
2021/06/02 02:48:33;;;;;;;;;;;;;;;8.30;100.00;99014.66;5043555;28;19939;-75
2021/06/02 02:51:03;;;;;;;;;;;;;;;8.38;100.00;99010.63;5055365;28;19959;-75
2021/06/02 02:53:30;;;;;;;;;;;;;;;8.42;100.00;99005.81;5055582;28;19929;-75
2021/06/02 02:56:01;;;;;;;;;;;;;;;8.34;100.00;99007.09;5054998;28;19931;-75
2021/06/02 02:58:46;;;;;;;;;;;;;;;8.25;100.00;99000.41;5055218;28;20023;-75
2021/06/02 03:01:13;;;;;;;;;;;;;;;8.15;100.00;98998.47;5055068;28;20070;-75
2021/06/02 03:03:41;;;;;;;;;;;;;;;8.21;100.00;99002.41;5054766;28;20021;-75
2021/06/02 03:06:14;;;;;;;;;;;;;;;8.31;100.00;98994.00;5055349;28;19925;-75
2021/06/02 03:08:59;;;;;;;;;;;;;;;8.18;100.00;99000.44;5054788;28;19972;-75
2021/06/02 03:11:33;;;;;;;;;;;;;;;8.23;100.00;98991.66;5055156;28;19929;-75
2021/06/02 03:14:22;;;;;;;;;;;;;;;8.22;100.00;99002.03;5054733;28;20014;-75
2021/06/02 03:16:55;;;;;;;;;;;;;;;8.18;100.00;98984.50;5055043;28;20015;-75
2021/06/02 03:19:40;;;;;;;;;;;;;;;8.17;100.00;98993.28;5054596;28;19956;-75
2021/06/02 03:22:10;;;;;;;;;;;;;;;7.98;100.00;98991.81;5053765;28;19925;-75
2021/06/02 03:24:40;;;;;;;;;;;;;;;8.06;100.00;98993.34;5040827;28;20398;-75
2021/06/02 03:27:13;;;;;;;;;;;;;;;8.08;100.00;98985.41;5054314;28;19940;-75
2021/06/02 03:29:46;;;;;;;;;;;;;;;8.12;100.00;98994.50;5054630;28;19948;-75
2021/06/02 03:32:40;;;;;;;;;;;;;;;8.16;100.00;98986.94;5086786;28;19932;-75
2021/06/02 03:35:16;;;;;;;;;;;;;;;8.09;100.00;98992.53;5043217;28;19932;-75
2021/06/02 03:38:06;;;;;;;;;;;;;;;8.32;100.00;98987.22;5053984;28;19968;-75
2021/06/02 03:40:45;;;;;;;;;;;;;;;8.35;100.00;98982.81;5054450;28;19947;-75
2021/06/02 03:43:12;;;;;;;;;;;;;;;8.49;100.00;98980.72;5054325;28;20024;-75
2021/06/02 03:45:58;;;;;;;;;;;;;;;8.37;100.00;98989.56;5054146;28;19990;-75
2021/06/02 03:48:44;;;;;;;;;;;;;;;8.38;100.00;98980.00;5055955;28;19932;-75
2021/06/02 03:51:18;;;;;;;;;;;;;;;8.16;100.00;98975.81;5054124;28;19925;-75
2021/06/02 03:53:57;;;;;;;;;;;;;;;8.06;100.00;98973.06;5054067;28;19925;-75
2021/06/02 03:56:27;;;;;;;;;;;;;;;8.14;100.00;98963.47;5054028;28;19931;-75
2021/06/02 03:59:03;;;;;;;;;;;;;;;8.25;100.00;98962.25;5086405;28;20388;-75
2021/06/02 04:01:30;;;;;;;;;;;;;;;8.18;100.00;98967.81;5052237;28;19931;-75
2021/06/02 04:04:04;;;;;;;;;;;;;;;8.31;100.00;98971.72;5054125;28;19924;-75
2021/06/02 04:06:43;;;;;;;;;;;;;;;8.30;100.00;98961.78;5086185;28;19931;-75
2021/06/02 04:09:22;;;;;;;;;;;;;;;8.35;100.00;98961.34;5036003;28;19925;-75
2021/06/02 04:11:55;;;;;;;;;;;;;;;8.26;100.00;98957.44;5036211;28;19925;-75
2021/06/02 04:14:25;;;;;;;;;;;;;;;8.35;100.00;98969.69;5053662;28;19936;-75
2021/06/02 04:16:53;;;;;;;;;;;;;;;8.34;100.00;98970.91;5053933;28;20284;-75
2021/06/02 04:19:20;;;;;;;;;;;;;;;8.37;100.00;98975.66;5052881;28;20403;-75
2021/06/02 04:21:47;;;;;;;;;;;;;;;8.55;100.00;98973.50;5052499;28;20296;-75
2021/06/02 04:24:15;;;;;;;;;;;;;;;8.42;100.00;98969.63;5068950;28;20019;-75
2021/06/02 04:26:43;;;;;;;;;;;;;;;8.28;100.00;98966.19;5053454;28;19929;-75
2021/06/02 04:29:11;;;;;;;;;;;;;;;8.11;100.00;98973.44;5053066;28;20011;-75
2021/06/02 04:31:50;;;;;;;;;;;;;;;8.33;100.00;98968.53;5086025;28;20338;-75
2021/06/02 04:34:18;;;;;;;;;;;;;;;8.37;100.00;98974.84;5053602;28;19947;-75
2021/06/02 04:36:48;;;;;;;;;;;;;;;8.39;100.00;98973.22;5053223;28;19925;-75
2021/06/02 04:39:16;;;;;;;;;;;;;;;8.43;100.00;98965.66;5052403;28;20042;-75
2021/06/02 04:41:43;;;;;;;;;;;;;;;8.35;100.00;98966.91;5053445;28;19929;-75
2021/06/02 04:44:12;;;;;;;;;;;;;;;8.47;100.00;98966.41;5053191;28;20056;-75
2021/06/02 04:46:40;;;;;;;;;;;;;;;8.62;100.00;98976.22;5085484;28;19929;-75
2021/06/02 04:49:07;;;;;;;;;;;;;;;8.71;100.00;98970.94;5053310;28;20299;-75
2021/06/02 04:51:59;;;;;;;;;;;;;;;8.86;100.00;98975.16;5052768;28;20297;-75
2021/06/02 04:54:44;;;;;;;;;;;;;;;9.18;100.00;98968.47;5053118;28;19925;-75
2021/06/02 04:57:31;;;;;;;;;;;;;;;9.73;100.00;98972.50;5052756;28;20019;-75
2021/06/02 05:00:04;;;;;;;;;;;;;;;10.15;100.00;98973.88;5053368;28;19951;-75
2021/06/02 05:03:07;;;;;;;;;;;;;;;10.26;100.00;98982.88;5053083;28;20019;-75
2021/06/02 05:05:40;;;;;;;;;;;;;;;10.53;100.00;98989.22;5030280;28;19932;-75
2021/06/02 05:08:09;;;;;;;;;;;;;;;10.62;100.00;98989.47;5030584;28;20388;-75
2021/06/02 05:10:55;;;;;;;;;;;;;;;10.80;100.00;98987.13;5013861;28;20428;-75
2021/06/02 05:13:40;;;;;;;;;;;;;;;10.99;100.00;98992.00;5030613;28;19925;-75
2021/06/02 05:16:26;;;;;;;;;;;;;;;11.11;100.00;98993.34;5013934;28;19925;-75
2021/06/02 05:19:18;;;;;;;;;;;;;;;11.49;100.00;98991.81;5030355;28;20379;-75
2021/06/02 05:22:06;;;;;;;;;;;;;;;11.52;100.00;98988.94;4997515;28;19925;-75
2021/06/02 05:24:35;;;;;;;;;;;;;;;11.60;100.00;98987.53;5030030;28;19929;-75
2021/06/02 05:27:06;;;;;;;;;;;;;;;11.66;100.00;98985.84;5030346;28;19925;-75
2021/06/02 05:29:52;;;;;;;;;;;;;;;11.75;100.00;98974.88;5030088;28;20416;-75
2021/06/02 05:32:38;;;;;;;;;;;;;;;11.73;100.00;98980.13;5013865;28;20423;-75
2021/06/02 05:35:08;;;;;;;;;;;;;;;11.98;100.00;98980.34;5029933;28;19936;-75
2021/06/02 05:37:48;;;;;;;;;;;;;;;12.22;100.00;98978.97;5029509;28;20384;-75
2021/06/02 05:40:27;;;;;;;;;;;;;;;12.60;100.00;98982.81;5047142;28;19925;-75
2021/06/02 05:43:13;;;;;;;;;;;;;;;13.31;100.00;98976.16;5052187;28;19925;-75
2021/06/02 05:45:59;;;;;;;;;;;;;;;14.25;100.00;98971.72;5052388;28;20010;-75
2021/06/02 05:48:26;;;;;;;;;;;;;;;15.21;100.00;98964.38;5052197;28;19932;-75
2021/06/02 05:50:54;;;;;;;;;;;;;;;16.06;100.00;98951.50;5050747;28;19967;-76
2021/06/02 05:53:40;;;;;;;;;;;;;;;15.87;100.00;98944.97;5051106;28;19931;-76
2021/06/02 05:56:07;;;;;;;;;;;;;;;15.87;100.00;98930.91;5052210;28;20383;-76
2021/06/02 05:58:47;;;;;;;;;;;;;;;15.90;100.00;98929.97;5052094;28;19980;-75
2021/06/02 06:01:32;;;;;;;;;;;;;;;15.85;100.00;98913.69;5051738;28;19931;-75
2021/06/02 06:04:20;;;;;;;;;;;;;;;16.25;100.00;98903.19;5040270;28;19929;-76
2021/06/02 06:06:57;;;;;;;;;;;;;;;16.30;100.00;98886.94;5050752;28;20341;-76
2021/06/02 06:09:33;;;;;;;;;;;;;;;16.71;100.00;98895.63;5051729;28;19925;-76
2021/06/02 06:12:06;;;;;;;;;;;;;;;16.52;100.00;98873.50;5050999;28;20027;-76
2021/06/02 06:14:52;;;;;;;;;;;;;;;16.27;100.00;98868.13;5051033;28;19928;-76
2021/06/02 06:17:38;;;;;;;;;;;;;;;16.33;100.00;98858.56;5050457;28;19964;-76
2021/06/02 06:20:15;;;;;;;;;;;;;;;17.03;100.00;98860.34;5042719;28;19931;-76
2021/06/02 06:22:51;;;;;;;;;;;;;;;16.92;100.00;98855.19;5051604;28;19939;-76
2021/06/02 06:25:27;;;;;;;;;;;;;;;16.44;100.00;98858.94;5042894;28;19924;-76
2021/06/02 06:27:57;;;;;;;;;;;;;;;16.52;100.00;98854.56;5051538;28;20022;-76
2021/06/02 06:30:34;;;;;;;;;;;;;;;16.95;100.00;98848.59;5050947;28;20394;-76
2021/06/02 06:33:07;;;;;;;;;;;;;;;17.41;100.00;98840.84;5050960;28;19929;-76
2021/06/02 06:35:38;;;;;;;;;;;;;;;17.22;100.00;98833.69;5051115;28;19960;-76
2021/06/02 06:38:08;;;;;;;;;;;;;;;17.28;100.00;98832.56;5051313;28;19968;-76
2021/06/02 06:40:36;;;;;;;;;;;;;;;17.20;100.00;98836.19;5050221;28;20398;-76
2021/06/02 06:43:11;;;;;;;;;;;;;;;17.14;100.00;98835.25;5051830;28;20011;-76
2021/06/02 06:45:39;;;;;;;;;;;;;;;17.27;100.00;98845.13;5051831;28;19932;-76
2021/06/02 06:48:12;;;;;;;;;;;;;;;18.19;100.00;98827.34;5051373;28;19968;-76
2021/06/02 06:50:55;;;;;;;;;;;;;;;19.09;100.00;98834.38;5050555;28;20440;-76
2021/06/02 06:53:23;;;;;;;;;;;;;;;20.10;100.00;98827.09;5051543;28;19932;-76
2021/06/02 06:55:52;;;;;;;;;;;;;;;20.98;100.00;98831.13;5051038;28;19994;-76
2021/06/02 06:58:19;;;;;;;;;;;;;;;21.42;100.00;98825.16;5050288;28;19928;-77
2021/06/02 07:00:47;;;;;;;;;;;;;;;21.42;100.00;98825.91;5050594;28;19929;-76
2021/06/02 07:03:14;;;;;;;;;;;;;;;21.76;100.00;98827.03;5054258;28;19932;-76
2021/06/02 07:05:42;;;;;;;;;;;;;;;21.53;100.00;98822.41;5054350;28;19975;-76
2021/06/02 07:08:10;;;;;;;;;;;;;;;21.99;100.00;98828.75;5037542;28;19932;-76
2021/06/02 07:10:37;;;;;;;;;;;;;;;21.34;100.00;98833.34;5054502;28;20019;-76
2021/06/02 07:13:09;;;;;;;;;;;;;;;21.72;100.00;98826.47;5054980;28;19931;-76
2021/06/02 07:15:37;;;;;;;;;;;;;;;21.96;100.00;98827.69;5054445;28;19932;-77
2021/06/02 07:18:05;;;;;;;;;;;;;;;21.15;100.00;98827.22;5054871;28;20207;-77
2021/06/02 07:20:34;;;;;;;;;;;;;;;20.52;100.00;98825.38;5053970;28;19925;-76
2021/06/02 07:23:02;;;;;;;;;;;;;;;19.56;100.00;98820.84;5054754;28;19924;-76
2021/06/02 07:25:30;;;;;;;;;;;;;;;20.08;100.00;98815.47;5053464;28;20066;-77
2021/06/02 07:28:00;;;;;;;;;;;;;;;20.34;100.00;98816.38;5052578;28;19932;-77
2021/06/02 07:30:28;;;;;;;;;;;;;;;20.61;100.00;98818.81;5054218;28;19936;-77
2021/06/02 07:32:55;;;;;;;;;;;;;;;20.12;100.00;98816.03;5054073;28;20011;-77
2021/06/02 07:35:23;;;;;;;;;;;;;;;20.93;100.00;98811.97;5054057;28;20387;-77
2021/06/02 07:37:51;;;;;;;;;;;;;;;21.53;100.00;98802.50;5053854;28;20055;-77
2021/06/02 07:40:19;;;;;;;;;;;;;;;21.79;100.00;98809.75;5048075;28;19932;-77
2021/06/02 07:42:45;;;;;;;;;;;;;;;21.59;100.00;98806.97;5053771;28;19924;-77
2021/06/02 07:45:13;;;;;;;;;;;;;;;22.06;100.00;98803.47;5053774;28;20388;-77
2021/06/02 07:47:40;;;;;;;;;;;;;;;22.68;100.00;98800.47;5054026;28;20334;-77
2021/06/02 07:50:08;;;;;;;;;;;;;;;23.02;100.00;98798.50;5051886;28;19925;-77
2021/06/02 07:52:35;;;;;;;;;;;;;;;23.04;100.00;98805.22;5053736;28;19955;-77
2021/06/02 07:55:03;;;;;;;;;;;;;;;23.88;100.00;98794.69;5053556;28;19925;-78
2021/06/02 07:57:31;;;;;;;;;;;;;;;24.34;100.00;98800.63;5052334;28;20127;-77
2021/06/02 07:59:58;;;;;;;;;;;;;;;23.70;100.00;98792.38;5053310;28;19925;-78
2021/06/02 08:02:26;;;;;;;;;;;;;;;23.50;100.00;98795.47;5086005;28;19925;-77
2021/06/02 08:04:53;;;;;;;;;;;;;;;23.63;100.00;98793.66;5053817;28;19929;-78
2021/06/02 08:07:21;;;;;;;;;;;;;;;22.55;100.00;98785.88;5086170;28;20017;-80
2021/06/02 08:09:50;;;;;;;;;;;;;;;23.13;100.00;98789.19;5036270;28;19939;-80
2021/06/02 08:12:18;;;;;;;;;;;;;;;23.13;100.00;98785.03;5053573;28;20058;-80
2021/06/02 08:14:45;;;;;;;;;;;;;;;22.89;100.00;98786.78;5085267;28;19925;-79
2021/06/02 08:17:12;;;;;;;;;;;;;;;21.68;100.00;98781.19;5053569;28;19924;-81
2021/06/02 08:19:40;;;;;;;;;;;;;;;21.69;100.00;98788.41;5036116;28;20303;-78
2021/06/02 08:22:07;;;;;;;;;;;;;;;21.58;100.00;98798.94;5052401;28;20303;-77
2021/06/02 08:24:38;;;;;;;;;;;;;;;21.39;100.00;98810.66;5051903;28;20066;-78
2021/06/02 08:27:09;;;;;;;;;;;;;;;21.26;100.00;98807.41;5053596;28;19932;-77
2021/06/02 08:29:36;;;;;;;;;;;;;;;22.13;100.00;98805.81;5053207;28;20345;-78
2021/06/02 08:32:04;;;;;;;;;;;;;;;21.90;100.00;98809.03;5051592;28;19925;-77
2021/06/02 08:34:31;;;;;;;;;;;;;;;21.94;100.00;98809.56;5052954;28;20028;-77
2021/06/02 08:36:59;;;;;;;;;;;;;;;21.72;100.00;98801.63;5053278;28;19925;-77
2021/06/02 08:39:26;;;;;;;;;;;;;;;22.10;100.00;98811.78;5052583;28;19925;-78
2021/06/02 08:41:59;;;;;;;;;;;;;;;21.59;100.00;98818.31;5053338;28;19931;-77
2021/06/02 08:44:27;;;;;;;;;;;;;;;21.30;100.00;98816.53;5034213;28;20043;-77
2021/06/02 08:46:54;;;;;;;;;;;;;;;21.26;100.00;98810.25;5051488;28;19929;-77
2021/06/02 08:49:21;;;;;;;;;;;;;;;20.78;100.00;98812.03;5042627;28;19974;-77
2021/06/02 08:51:49;;;;;;;;;;;;;;;20.62;100.00;98815.47;5070550;28;19931;-77
2021/06/02 08:54:16;;;;;;;;;;;;;;;20.58;100.00;98825.47;5051828;28;19924;-77
2021/06/02 08:56:44;;;;;;;;;;;;;;;20.77;100.00;98826.72;5051234;28;19971;-77
2021/06/02 08:59:11;;;;;;;;;;;;;;;20.95;100.00;98829.28;5052713;28;19952;-77
2021/06/02 09:01:38;;;;;;;;;;;;;;;20.87;100.00;98825.31;5052364;28;19955;-77
2021/06/02 09:04:06;;;;;;;;;;;;;;;21.01;100.00;98825.25;5052850;28;19928;-78
2021/06/02 09:06:35;;;;;;;;;;;;;;;21.07;100.00;98828.13;5052331;28;19933;-78
2021/06/02 09:09:04;;;;;;;;;;;;;;;21.12;100.00;98827.44;5052849;28;19929;-78
2021/06/02 09:11:38;;;;;;;;;;;;;;;21.26;100.00;98829.38;5035057;28;20010;-78
2021/06/02 09:14:22;;;;;;;;;;;;;;;21.42;100.00;98837.28;5051434;28;20022;-78
2021/06/02 09:16:50;;;;;;;;;;;;;;;21.32;100.00;98830.22;5052732;28;19925;-79
2021/06/02 09:19:30;;;;;;;;;;;;;;;21.34;100.00;98833.34;5052298;28;19925;-80
2021/06/02 09:21:57;;;;;;;;;;;;;;;20.95;100.00;98841.44;5051536;28;19925;-80
2021/06/02 09:24:43;;;;;;;;;;;;;;;20.65;100.00;98847.75;5050298;28;19928;-80
2021/06/02 09:27:10;;;;;;;;;;;;;;;20.65;100.00;98833.56;5050542;28;19986;-80
2021/06/02 09:29:54;;;;;;;;;;;;;;;21.55;100.00;98828.38;5052421;28;20299;-79
2021/06/02 09:32:22;;;;;;;;;;;;;;;21.87;100.00;98827.13;5052426;28;20395;-80
2021/06/02 09:34:58;;;;;;;;;;;;;;;22.50;100.00;98829.38;5052228;28;19924;-80
2021/06/02 09:37:25;;;;;;;;;;;;;;;21.40;100.00;98825.66;5052366;28;19932;-80
2021/06/02 09:39:54;;;;;;;;;;;;;;;21.36;100.00;98827.94;5051219;28;20300;-78
2021/06/02 09:42:28;;;;;;;;;;;;;;;20.99;100.00;98824.19;5052104;28;20399;-79
2021/06/02 09:45:10;;;;;;;;;;;;;;;21.93;100.00;98820.16;5052159;28;20027;-77
2021/06/02 09:47:44;;;;;;;;;;;;;;;22.06;100.00;98822.59;5051192;28;19971;-78
2021/06/02 09:50:13;;;;;;;;;;;;;;;21.81;100.00;98815.69;5050843;28;20364;-77
2021/06/02 09:52:41;;;;;;;;;;;;;;;21.84;100.00;98814.66;5052051;28;20469;-76
2021/06/02 09:55:13;;;;;;;;;;;;;;;21.65;100.00;98812.69;5049752;28;20294;-78
2021/06/02 09:57:40;;;;;;;;;;;;;;;21.30;100.00;98807.19;5047656;28;19929;-77
2021/06/02 10:00:08;;;;;;;;;;;;;;;20.99;100.00;98804.31;5050117;28;20353;-77
2021/06/02 10:02:38;;;;;;;;;;;;;;;20.57;100.00;98815.41;5051844;28;19928;-77
2021/06/02 10:05:06;;;;;;;;;;;;;;;20.49;100.00;98812.19;5051329;28;19929;-77
2021/06/02 10:07:34;;;;;;;;;;;;;;;20.34;100.00;98805.81;5051938;28;19925;-79
2021/06/02 10:10:08;;;;;;;;;;;;;;;20.56;100.00;98808.16;5050537;28;20086;-79
2021/06/02 10:12:35;;;;;;;;;;;;;;;20.35;100.00;98803.75;5050860;28;19935;-79
2021/06/02 10:15:03;;;;;;;;;;;;;;;20.30;100.00;98804.44;5051994;28;20371;-78
2021/06/02 10:17:31;;;;;;;;;;;;;;;20.55;100.00;98803.75;5051982;28;19928;-79
2021/06/02 10:20:04;;;;;;;;;;;;;;;20.51;100.00;98798.28;5050888;28;19952;-79
2021/06/02 10:22:32;;;;;;;;;;;;;;;20.82;100.00;98800.47;5051877;28;19940;-78
2021/06/02 10:25:03;;;;;;;;;;;;;;;20.91;100.00;98809.63;5051640;28;20299;-76
2021/06/02 10:27:30;;;;;;;;;;;;;;;21.03;100.00;98807.72;5051923;28;19928;-77
2021/06/02 10:29:57;;;;;;;;;;;;;;;21.32;100.00;98804.66;5052012;28;19925;-77
2021/06/02 10:32:25;;;;;;;;;;;;;;;21.31;100.00;98803.09;5050487;28;19933;-77
2021/06/02 10:34:52;;;;;;;;;;;;;;;20.98;100.00;98797.84;5051974;28;20020;-77
2021/06/02 10:37:21;;;;;;;;;;;;;;;21.03;100.00;98804.88;5053575;28;19931;-77
2021/06/02 10:39:51;;;;;;;;;;;;;;;20.88;100.00;98807.00;5055197;28;19932;-77
2021/06/02 10:42:21;;;;;;;;;;;;;;;20.79;100.00;98816.47;5055658;28;19925;-77
2021/06/02 10:44:51;;;;;;;;;;;;;;;20.92;100.00;98810.38;5054507;28;19925;-77
2021/06/02 10:47:25;;;;;;;;;;;;;;;20.95;100.00;98809.41;5055654;28;19932;-77
2021/06/02 10:49:54;;;;;;;;;;;;;;;20.98;100.00;98797.84;5055357;28;20384;-77
2021/06/02 10:52:37;;;;;;;;;;;;;;;21.07;100.00;98794.06;5055469;28;20030;-77
2021/06/02 10:55:30;;;;;;;;;;;;;;;20.87;100.00;98803.38;5055093;28;19936;-77
2021/06/02 10:58:18;;;;;;;;;;;;;;;21.21;100.00;98796.81;5055135;28;20006;-77
2021/06/02 11:00:45;;;;;;;;;;;;;;;21.09;100.00;98782.97;5055083;28;19929;-77
2021/06/02 11:03:32;;;;;;;;;;;;;;;20.96;100.00;98800.41;5055116;28;20128;-77
2021/06/02 11:06:05;;;;;;;;;;;;;;;21.09;100.00;98792.28;5055144;28;19933;-77
2021/06/02 11:08:48;;;;;;;;;;;;;;;21.17;100.00;98786.94;5054837;28;20422;-77
2021/06/02 11:11:22;;;;;;;;;;;;;;;21.13;100.00;98781.47;5043111;28;20013;-77
2021/06/02 11:14:08;;;;;;;;;;;;;;;21.23;100.00;98782.09;5054992;28;19960;-77
2021/06/02 11:16:39;;;;;;;;;;;;;;;21.43;100.00;98774.25;5054955;28;19935;-77
2021/06/02 11:19:33;;;;;;;;;;;;;;;21.35;100.00;98764.66;5054927;28;19959;-77
2021/06/02 11:22:01;;;;;;;;;;;;;;;21.50;100.00;98763.72;5051641;28;20612;-77
2021/06/02 11:24:31;;;;;;;;;;;;;;;21.27;100.00;98771.28;5053569;28;19954;-77
2021/06/02 11:27:08;;;;;;;;;;;;;;;21.48;100.00;98775.59;5053567;28;19932;-77
2021/06/02 11:29:35;;;;;;;;;;;;;;;21.16;100.00;98768.31;5054772;28;19924;-77
2021/06/02 11:32:15;;;;;;;;;;;;;;;21.37;100.00;98772.66;5054785;28;19972;-77
2021/06/02 11:34:46;;;;;;;;;;;;;;;21.54;100.00;98765.03;5086898;28;19979;-77
2021/06/02 11:37:19;;;;;;;;;;;;;;;21.43;100.00;98765.72;5054206;28;19935;-77
2021/06/02 11:39:47;;;;;;;;;;;;;;;21.38;100.00;98763.63;5054437;28;19948;-77
2021/06/02 11:42:34;;;;;;;;;;;;;;;21.42;100.00;98766.22;5054573;28;19959;-77
2021/06/02 11:45:05;;;;;;;;;;;;;;;21.45;100.00;98762.38;5054637;28;19924;-77
2021/06/02 11:47:33;;;;;;;;;;;;;;;21.44;100.00;98766.53;5054107;28;19925;-77
2021/06/02 11:50:26;;;;;;;;;;;;;;;21.26;100.00;98761.19;5054354;28;20012;-77
2021/06/02 11:52:55;;;;;;;;;;;;;;;21.34;100.00;98768.00;5051039;28;19925;-77
2021/06/02 11:55:22;;;;;;;;;;;;;;;21.38;100.00;98762.84;5054655;28;19996;-77
2021/06/02 11:57:51;;;;;;;;;;;;;;;21.56;100.00;98765.31;5053018;28;19925;-77
2021/06/02 12:00:18;;;;;;;;;;;;;;;21.56;100.00;98771.00;5054034;28;19925;-77
2021/06/02 12:02:46;;;;;;;;;;;;;;;21.54;100.00;98759.34;5054201;28;19929;-77
2021/06/02 12:05:19;;;;;;;;;;;;;;;21.71;100.00;98763.13;5053613;28;19925;-77
2021/06/02 12:07:48;;;;;;;;;;;;;;;21.69;100.00;98762.81;5054040;28;20387;-77
2021/06/02 12:10:16;;;;;;;;;;;;;;;21.97;100.00;98757.38;5053948;28;19924;-77
2021/06/02 12:12:45;;;;;;;;;;;;;;;21.87;100.00;98762.47;5040338;28;19925;-77
2021/06/02 12:15:13;;;;;;;;;;;;;;;21.84;100.00;98765.56;5054005;28;19924;-77
2021/06/02 12:17:41;;;;;;;;;;;;;;;21.76;100.00;98770.16;5052399;28;19925;-77
2021/06/02 12:20:16;;;;;;;;;;;;;;;21.86;100.00;98777.97;5053594;28;20024;-77
2021/06/02 12:22:43;;;;;;;;;;;;;;;21.84;100.00;98765.56;5052529;28;19925;-77
2021/06/02 12:25:13;;;;;;;;;;;;;;;21.89;100.00;98768.44;5053877;28;20019;-77
2021/06/02 12:27:42;;;;;;;;;;;;;;;21.72;100.00;98773.19;5053614;28;19929;-77
2021/06/02 12:30:17;;;;;;;;;;;;;;;21.36;100.00;98768.25;5085823;28;20292;-77
2021/06/02 12:32:49;;;;;;;;;;;;;;;21.61;100.00;98770.28;5053787;28;20378;-78
2021/06/02 12:35:42;;;;;;;;;;;;;;;21.83;100.00;98759.09;5085649;28;19929;-77
2021/06/02 12:38:15;;;;;;;;;;;;;;;22.01;100.00;98769.31;5052078;28;20022;-77
2021/06/02 12:40:46;;;;;;;;;;;;;;;22.00;100.00;98774.19;5053514;28;19928;-77
2021/06/02 12:43:17;;;;;;;;;;;;;;;21.90;100.00;98760.69;5053325;28;19925;-77
2021/06/02 12:45:46;;;;;;;;;;;;;;;21.99;100.00;98754.81;5052199;28;19935;-77
2021/06/02 12:48:19;;;;;;;;;;;;;;;22.12;100.00;98749.44;5051958;28;20015;-77
2021/06/02 12:50:47;;;;;;;;;;;;;;;22.26;100.00;98746.41;5051810;28;19979;-77
2021/06/02 12:53:15;;;;;;;;;;;;;;;22.24;100.00;98745.34;5053065;28;19973;-77
2021/06/02 12:55:44;;;;;;;;;;;;;;;22.22;100.00;98745.88;5053169;28;20384;-77
2021/06/02 12:58:12;;;;;;;;;;;;;;;22.55;100.00;98746.03;5052822;28;19971;-77
2021/06/02 13:00:44;;;;;;;;;;;;;;;22.77;100.00;98739.63;5052328;28;20315;-77
2021/06/02 13:03:12;;;;;;;;;;;;;;;22.54;100.00;98733.09;5050959;28;20386;-77
2021/06/02 13:05:46;;;;;;;;;;;;;;;22.67;100.00;98732.63;5052832;28;19925;-77
2021/06/02 13:08:13;;;;;;;;;;;;;;;22.70;100.00;98738.06;5052846;28;19931;-77
2021/06/02 13:10:41;;;;;;;;;;;;;;;22.63;100.00;98738.56;5052887;28;19924;-77